Time,TemperatureF,DewpointF,PressureIn,WindDirection,WindDirectionDegrees,WindSpeedMPH,WindSpeedGustMPH,Humidity,HourlyPrecipIn,Conditions,Clouds,dailyrainin,SoftwareType,DateUTC
2013-08-02 00:00:00,67.7,66.5,29.94,WNW,294,0.0,0.0,96,0.00,,---,0.00,VWS V14.01,2013-08-02 04:00:00,
2013-08-02 00:01:00,67.7,66.5,29.94,WNW,294,0.0,0.0,96,0.00,,---,0.00,VWS V14.01,2013-08-02 04:01:00,
2013-08-02 00:02:00,67.6,66.4,29.94,WNW,294,0.0,0.0,96,0.00,,---,0.00,VWS V14.01,2013-08-02 04:02:00,
2013-08-02 00:05:00,69.1,67.6,29.93,WNW,294,0.0,0.0,95,0.00,,---,0.00,VWS V14.01,2013-08-02 04:05:00,
2013-08-02 00:07:00,67.6,66.7,29.94,WNW,294,0.0,0.0,97,0.00,,---,0.00,VWS V14.01,2013-08-02 04:07:00,
2013-08-02 00:10:00,69.0,67.5,29.93,WNW,294,0.0,0.0,95,0.00,,---,0.00,VWS V14.01,2013-08-02 04:10:00,
2013-08-02 00:12:00,67.5,66.6,29.94,WNW,294,0.0,0.0,97,0.00,,---,0.00,VWS V14.01,2013-08-02 04:12:00,
2013-08-02 00:15:00,67.4,66.5,29.94,WNW,294,0.0,0.0,97,0.00,,---,0.00,VWS V14.01,2013-08-02 04:15:00,
2013-08-02 00:16:00,67.4,66.5,29.94,WNW,294,0.0,0.0,97,0.00,,---,0.00,VWS V14.01,2013-08-02 04:16:00,
2013-08-02 00:20:00,68.9,67.1,29.93,WNW,294,0.0,1.0,94,0.00,,---,0.00,VWS V14.01,2013-08-02 04:20:00,
2013-08-02 00:21:00,67.3,66.4,29.93,WNW,294,0.0,0.0,97,0.00,,---,0.00,VWS V14.01,2013-08-02 04:21:00,
2013-08-02 00:25:00,68.8,67.0,29.94,WNW,294,0.0,0.0,94,0.00,,---,0.00,VWS V14.01,2013-08-02 04:25:00,
2013-08-02 00:27:00,67.3,66.1,29.93,WNW,294,0.0,0.0,96,0.00,,---,0.00,VWS V14.01,2013-08-02 04:27:00,
2013-08-02 00:30:00,68.6,67.1,29.94,WNW,294,0.0,0.0,95,0.00,,---,0.00,VWS V14.01,2013-08-02 04:30:00,
2013-08-02 00:31:00,67.3,66.1,29.94,WNW,294,0.0,0.0,96,0.00,,---,0.00,VWS V14.01,2013-08-02 04:31:00,
2013-08-02 00:35:00,68.4,66.9,29.94,WNW,294,0.0,0.0,95,0.00,,---,0.00,VWS V14.01,2013-08-02 04:35:00,
2013-08-02 00:37:00,67.2,66.0,29.94,WNW,294,0.0,0.0,96,0.00,,---,0.00,VWS V14.01,2013-08-02 04:37:00,
2013-08-02 00:40:00,68.3,66.8,29.94,WNW,294,0.0,0.0,95,0.00,,---,0.00,VWS V14.01,2013-08-02 04:40:00,
2013-08-02 00:42:00,67.2,66.0,29.94,WNW,294,0.0,0.0,96,0.00,,---,0.00,VWS V14.01,2013-08-02 04:42:00,
2013-08-02 00:45:00,68.2,67.0,29.93,WNW,294,0.0,0.0,96,0.00,,---,0.00,VWS V14.01,2013-08-02 04:45:00,
2013-08-02 00:47:00,67.2,66.0,29.94,WNW,294,0.0,0.0,96,0.00,,---,0.00,VWS V14.01,2013-08-02 04:47:00,
2013-08-02 00:50:00,68.1,66.9,29.94,WNW,294,0.0,0.0,96,0.00,,---,0.00,VWS V14.01,2013-08-02 04:50:00,
2013-08-02 00:52:00,67.3,65.8,29.94,WNW,294,0.0,0.0,95,0.00,,---,0.00,VWS V14.01,2013-08-02 04:52:00,
2013-08-02 00:55:00,68.0,66.8,29.94,WNW,294,0.0,0.0,96,0.00,,---,0.00,VWS V14.01,2013-08-02 04:55:00,
2013-08-02 00:57:00,67.3,65.8,29.94,WNW,294,0.0,0.0,95,0.00,,---,0.00,VWS V14.01,2013-08-02 04:57:00,
2013-08-02 01:00:00,67.7,66.5,29.94,WNW,294,0.0,0.0,96,0.00,,---,0.00,VWS V14.01,2013-08-02 05:00:00,
2013-08-02 01:02:00,67.3,65.8,29.94,WNW,294,0.0,0.0,95,0.00,,---,0.00,VWS V14.01,2013-08-02 05:02:00,
2013-08-02 01:05:00,67.6,66.7,29.94,WNW,294,0.0,1.0,97,0.00,,---,0.00,VWS V14.01,2013-08-02 05:05:00,
2013-08-02 01:07:00,67.3,65.8,29.95,WNW,294,0.0,0.0,95,0.00,,---,0.00,VWS V14.01,2013-08-02 05:07:00,
2013-08-02 01:10:00,67.5,66.6,29.94,WNW,294,0.0,0.0,97,0.00,,---,0.00,VWS V14.01,2013-08-02 05:10:00,
2013-08-02 01:12:00,67.2,65.7,29.95,WNW,294,0.0,0.0,95,0.00,,---,0.00,VWS V14.01,2013-08-02 05:12:00,
2013-08-02 01:15:00,67.5,66.6,29.94,WNW,294,0.0,0.0,97,0.00,,---,0.00,VWS V14.01,2013-08-02 05:15:00,
2013-08-02 01:17:00,66.9,65.7,29.94,WNW,294,0.0,0.0,96,0.00,,---,0.00,VWS V14.01,2013-08-02 05:17:00,
2013-08-02 01:20:00,67.3,66.4,29.93,WNW,294,0.0,0.0,97,0.00,,---,0.00,VWS V14.01,2013-08-02 05:20:00,
2013-08-02 01:22:00,66.7,65.5,29.94,WNW,294,0.0,0.0,96,0.00,,---,0.00,VWS V14.01,2013-08-02 05:22:00,
2013-08-02 01:25:00,67.3,66.1,29.93,WNW,294,0.0,0.0,96,0.00,,---,0.00,VWS V14.01,2013-08-02 05:25:00,
2013-08-02 01:27:00,66.5,65.6,29.94,WNW,294,0.0,0.0,97,0.00,,---,0.00,VWS V14.01,2013-08-02 05:27:00,
2013-08-02 01:30:00,67.3,66.1,29.93,WNW,294,0.0,0.0,96,0.00,,---,0.00,VWS V14.01,2013-08-02 05:30:00,
2013-08-02 01:32:00,66.5,65.6,29.94,WNW,294,0.0,0.0,97,0.00,,---,0.00,VWS V14.01,2013-08-02 05:32:00,
2013-08-02 01:35:00,67.3,66.1,29.94,WNW,294,0.0,0.0,96,0.00,,---,0.00,VWS V14.01,2013-08-02 05:35:00,
2013-08-02 01:37:00,66.5,65.6,29.94,WNW,294,0.0,0.0,97,0.00,,---,0.00,VWS V14.01,2013-08-02 05:37:00,
2013-08-02 01:40:00,67.2,66.0,29.94,WNW,294,0.0,0.0,96,0.00,,---,0.00,VWS V14.01,2013-08-02 05:40:00,
2013-08-02 01:42:00,66.4,65.5,29.94,WNW,294,0.0,0.0,97,0.00,,---,0.00,VWS V14.01,2013-08-02 05:42:00,
2013-08-02 01:45:00,67.2,66.0,29.94,WNW,294,0.0,0.0,96,0.00,,---,0.00,VWS V14.01,2013-08-02 05:45:00,
2013-08-02 01:47:00,66.3,65.4,29.94,WNW,294,0.0,0.0,97,0.00,,---,0.00,VWS V14.01,2013-08-02 05:47:00,
2013-08-02 01:50:00,67.3,66.1,29.94,WNW,294,0.0,0.0,96,0.00,,---,0.00,VWS V14.01,2013-08-02 05:50:00,
2013-08-02 01:52:00,66.4,65.8,29.94,WNW,294,0.0,0.0,98,0.00,,---,0.00,VWS V14.01,2013-08-02 05:52:00,
2013-08-02 01:55:00,67.3,65.8,29.94,WNW,294,0.0,0.0,95,0.00,,---,0.00,VWS V14.01,2013-08-02 05:55:00,
2013-08-02 01:57:00,66.5,65.6,29.93,WNW,294,0.0,0.0,97,0.00,,---,0.00,VWS V14.01,2013-08-02 05:57:00,
2013-08-02 02:00:00,67.3,65.8,29.94,WNW,294,0.0,0.0,95,0.00,,---,0.00,VWS V14.01,2013-08-02 06:00:00,
2013-08-02 02:02:00,66.6,65.7,29.93,WNW,294,1.0,1.0,97,0.00,,---,0.00,VWS V14.01,2013-08-02 06:02:00,
2013-08-02 02:05:00,67.3,65.8,29.95,WNW,294,0.0,1.0,95,0.00,,---,0.00,VWS V14.01,2013-08-02 06:05:00,
2013-08-02 02:07:00,66.8,65.6,29.93,WNW,294,0.0,0.0,96,0.00,,---,0.00,VWS V14.01,2013-08-02 06:07:00,
2013-08-02 02:10:00,67.3,65.8,29.95,WNW,294,0.0,0.0,95,0.00,,---,0.00,VWS V14.01,2013-08-02 06:10:00,
2013-08-02 02:12:00,66.7,65.5,29.93,WNW,294,0.0,0.0,96,0.00,,---,0.00,VWS V14.01,2013-08-02 06:12:00,
2013-08-02 02:15:00,67.0,65.5,29.95,WNW,294,0.0,0.0,95,0.00,,---,0.00,VWS V14.01,2013-08-02 06:15:00,
2013-08-02 02:17:00,66.7,65.5,29.93,WNW,294,0.0,0.0,96,0.00,,---,0.00,VWS V14.01,2013-08-02 06:17:00,
2013-08-02 02:20:00,66.8,65.6,29.94,WNW,294,0.0,0.0,96,0.00,,---,0.00,VWS V14.01,2013-08-02 06:20:00,
2013-08-02 02:22:00,66.5,65.3,29.93,WNW,294,0.0,0.0,96,0.00,,---,0.00,VWS V14.01,2013-08-02 06:22:00,
2013-08-02 02:25:00,66.5,65.3,29.94,WNW,294,0.0,0.0,96,0.00,,---,0.00,VWS V14.01,2013-08-02 06:25:00,
2013-08-02 02:27:00,66.2,65.0,29.93,WNW,294,0.0,1.0,96,0.00,,---,0.00,VWS V14.01,2013-08-02 06:27:00,
2013-08-02 02:30:00,66.5,65.6,29.95,WNW,294,0.0,0.0,97,0.00,,---,0.00,VWS V14.01,2013-08-02 06:30:00,
2013-08-02 02:32:00,65.8,64.6,29.93,WNW,294,0.0,0.0,96,0.00,,---,0.00,VWS V14.01,2013-08-02 06:32:00,
2013-08-02 02:35:00,66.5,65.6,29.94,WNW,294,0.0,0.0,97,0.00,,---,0.00,VWS V14.01,2013-08-02 06:35:00,
2013-08-02 02:37:00,65.5,64.6,29.93,WNW,294,0.0,0.0,97,0.00,,---,0.00,VWS V14.01,2013-08-02 06:37:00,
2013-08-02 02:40:00,66.4,65.5,29.94,WNW,294,0.0,0.0,97,0.00,,---,0.00,VWS V14.01,2013-08-02 06:40:00,
2013-08-02 02:42:00,65.4,64.5,29.93,WNW,294,0.0,0.0,97,0.00,,---,0.00,VWS V14.01,2013-08-02 06:42:00,
2013-08-02 02:45:00,66.3,65.4,29.94,WNW,294,0.0,0.0,97,0.00,,---,0.00,VWS V14.01,2013-08-02 06:45:00,
2013-08-02 02:47:00,65.2,64.3,29.93,WNW,294,0.0,0.0,97,0.00,,---,0.00,VWS V14.01,2013-08-02 06:47:00,
2013-08-02 02:50:00,66.3,65.4,29.94,WNW,294,0.0,0.0,97,0.00,,---,0.00,VWS V14.01,2013-08-02 06:50:00,
2013-08-02 02:52:00,65.0,64.4,29.92,WNW,294,0.0,0.0,98,0.00,,---,0.00,VWS V14.01,2013-08-02 06:52:00,
2013-08-02 02:55:00,66.5,65.6,29.93,WNW,294,0.0,1.0,97,0.00,,---,0.00,VWS V14.01,2013-08-02 06:55:00,
2013-08-02 02:57:00,64.9,64.3,29.92,WNW,294,0.0,0.0,98,0.00,,---,0.00,VWS V14.01,2013-08-02 06:57:00,
2013-08-02 03:00:00,66.6,65.7,29.93,WNW,294,0.0,1.0,97,0.00,,---,0.00,VWS V14.01,2013-08-02 07:00:00,
2013-08-02 03:02:00,64.8,64.2,29.92,WNW,294,0.0,0.0,98,0.00,,---,0.00,VWS V14.01,2013-08-02 07:02:00,
2013-08-02 03:05:00,66.7,65.5,29.93,WNW,294,0.0,1.0,96,0.00,,---,0.00,VWS V14.01,2013-08-02 07:05:00,
2013-08-02 03:07:00,64.7,64.1,29.92,WNW,294,0.0,0.0,98,0.00,,---,0.00,VWS V14.01,2013-08-02 07:07:00,
2013-08-02 03:10:00,66.8,65.6,29.93,WNW,294,0.0,0.0,96,0.00,,---,0.00,VWS V14.01,2013-08-02 07:10:00,
2013-08-02 03:12:00,64.5,63.9,29.91,WNW,294,0.0,0.0,98,0.00,,---,0.00,VWS V14.01,2013-08-02 07:12:00,
2013-08-02 03:15:00,66.7,65.5,29.93,WNW,294,0.0,0.0,96,0.00,,---,0.00,VWS V14.01,2013-08-02 07:15:00,
2013-08-02 03:17:00,64.4,63.8,29.92,WNW,294,0.0,0.0,98,0.00,,---,0.00,VWS V14.01,2013-08-02 07:17:00,
2013-08-02 03:20:00,66.6,65.4,29.93,WNW,294,0.0,0.0,96,0.00,,---,0.00,VWS V14.01,2013-08-02 07:20:00,
2013-08-02 03:22:00,64.4,63.8,29.92,WNW,294,0.0,0.0,98,0.00,,---,0.00,VWS V14.01,2013-08-02 07:22:00,
2013-08-02 03:25:00,66.4,65.2,29.93,WNW,294,0.0,0.0,96,0.00,,---,0.00,VWS V14.01,2013-08-02 07:25:00,
2013-08-02 03:27:00,64.4,64.1,29.92,WNW,294,0.0,0.0,99,0.00,,---,0.00,VWS V14.01,2013-08-02 07:27:00,
2013-08-02 03:30:00,66.0,64.8,29.93,WNW,294,0.0,1.0,96,0.00,,---,0.00,VWS V14.01,2013-08-02 07:30:00,
2013-08-02 03:32:00,64.2,63.6,29.92,WNW,294,0.0,0.0,98,0.00,,---,0.00,VWS V14.01,2013-08-02 07:32:00,
2013-08-02 03:35:00,65.7,64.5,29.93,WNW,294,0.0,0.0,96,0.00,,---,0.00,VWS V14.01,2013-08-02 07:35:00,
2013-08-02 03:37:00,64.3,64.0,29.92,WNW,294,0.0,0.0,99,0.00,,---,0.00,VWS V14.01,2013-08-02 07:37:00,
2013-08-02 03:40:00,65.4,64.5,29.93,WNW,294,0.0,0.0,97,0.00,,---,0.00,VWS V14.01,2013-08-02 07:40:00,
2013-08-02 03:43:00,64.2,63.9,29.92,WNW,294,0.0,0.0,99,0.00,,---,0.00,VWS V14.01,2013-08-02 07:43:00,
2013-08-02 03:45:00,65.4,64.5,29.93,WNW,294,0.0,0.0,97,0.00,,---,0.00,VWS V14.01,2013-08-02 07:45:00,
2013-08-02 03:48:00,64.4,64.1,29.92,WNW,294,0.0,0.0,99,0.00,,---,0.00,VWS V14.01,2013-08-02 07:48:00,
2013-08-02 03:50:00,65.1,64.2,29.93,WNW,294,0.0,0.0,97,0.00,,---,0.00,VWS V14.01,2013-08-02 07:50:00,
2013-08-02 03:52:00,64.5,64.2,29.92,WNW,294,0.0,0.0,99,0.00,,---,0.00,VWS V14.01,2013-08-02 07:52:00,
2013-08-02 03:55:00,65.0,64.4,29.92,WNW,294,0.0,0.0,98,0.00,,---,0.00,VWS V14.01,2013-08-02 07:55:00,
2013-08-02 03:58:00,64.5,64.2,29.91,WNW,294,0.0,0.0,99,0.00,,---,0.00,VWS V14.01,2013-08-02 07:58:00,
2013-08-02 04:00:00,64.9,64.3,29.92,WNW,294,0.0,0.0,98,0.00,,---,0.00,VWS V14.01,2013-08-02 08:00:00,
2013-08-02 04:03:00,64.3,64.0,29.91,WNW,294,0.0,0.0,99,0.00,,---,0.00,VWS V14.01,2013-08-02 08:03:00,
2013-08-02 04:05:00,64.8,64.2,29.92,WNW,294,0.0,0.0,98,0.00,,---,0.00,VWS V14.01,2013-08-02 08:05:00,
2013-08-02 04:08:00,64.5,64.2,29.92,WNW,294,0.0,0.0,99,0.00,,---,0.00,VWS V14.01,2013-08-02 08:08:00,
2013-08-02 04:10:00,64.6,64.0,29.92,WNW,294,0.0,0.0,98,0.00,,---,0.00,VWS V14.01,2013-08-02 08:10:00,
2013-08-02 04:13:00,64.6,64.3,29.92,WNW,294,0.0,0.0,99,0.00,,---,0.00,VWS V14.01,2013-08-02 08:13:00,
2013-08-02 04:15:00,64.5,63.9,29.91,WNW,294,0.0,0.0,98,0.00,,---,0.00,VWS V14.01,2013-08-02 08:15:00,
2013-08-02 04:18:00,64.5,64.2,29.92,WNW,294,0.0,0.0,99,0.00,,---,0.00,VWS V14.01,2013-08-02 08:18:00,
2013-08-02 04:20:00,64.4,63.8,29.92,WNW,294,0.0,0.0,98,0.00,,---,0.00,VWS V14.01,2013-08-02 08:20:00,
2013-08-02 04:23:00,64.5,64.2,29.92,WNW,294,0.0,0.0,99,0.00,,---,0.00,VWS V14.01,2013-08-02 08:23:00,
2013-08-02 04:25:00,64.4,63.8,29.92,WNW,294,0.0,0.0,98,0.00,,---,0.00,VWS V14.01,2013-08-02 08:25:00,
2013-08-02 04:28:00,64.4,64.1,29.93,WNW,294,0.0,0.0,99,0.00,,---,0.00,VWS V14.01,2013-08-02 08:28:00,
2013-08-02 04:30:00,64.3,64.0,29.92,WNW,294,0.0,0.0,99,0.00,,---,0.00,VWS V14.01,2013-08-02 08:30:00,
2013-08-02 04:33:00,64.3,64.0,29.93,WNW,294,0.0,0.0,99,0.00,,---,0.00,VWS V14.01,2013-08-02 08:33:00,
2013-08-02 04:35:00,64.3,64.0,29.92,WNW,294,0.0,0.0,99,0.00,,---,0.00,VWS V14.01,2013-08-02 08:35:00,
2013-08-02 04:38:00,64.1,63.8,29.93,WNW,294,0.0,0.0,99,0.00,,---,0.00,VWS V14.01,2013-08-02 08:38:00,
2013-08-02 04:40:00,64.2,63.9,29.92,WNW,294,0.0,0.0,99,0.00,,---,0.00,VWS V14.01,2013-08-02 08:40:00,
2013-08-02 04:43:00,64.0,63.7,29.93,WNW,294,0.0,1.0,99,0.00,,---,0.00,VWS V14.01,2013-08-02 08:43:00,
2013-08-02 04:45:00,64.2,63.9,29.92,WNW,294,0.0,0.0,99,0.00,,---,0.00,VWS V14.01,2013-08-02 08:45:00,
2013-08-02 04:48:00,64.1,63.8,29.94,WNW,294,0.0,0.0,99,0.00,,---,0.00,VWS V14.01,2013-08-02 08:48:00,
2013-08-02 04:50:00,64.5,64.2,29.92,WNW,294,0.0,0.0,99,0.00,,---,0.00,VWS V14.01,2013-08-02 08:50:00,
2013-08-02 04:53:00,64.1,63.8,29.93,WNW,294,0.0,1.0,99,0.00,,---,0.00,VWS V14.01,2013-08-02 08:53:00,
2013-08-02 04:55:00,64.5,64.2,29.92,WNW,294,0.0,0.0,99,0.00,,---,0.00,VWS V14.01,2013-08-02 08:55:00,
2013-08-02 04:58:00,64.2,63.9,29.92,WNW,294,0.0,0.0,99,0.00,,---,0.00,VWS V14.01,2013-08-02 08:58:00,
2013-08-02 05:00:00,64.4,64.1,29.91,WNW,294,0.0,0.0,99,0.00,,---,0.00,VWS V14.01,2013-08-02 09:00:00,
2013-08-02 05:03:00,64.1,63.8,29.92,WNW,294,0.0,0.0,99,0.00,,---,0.00,VWS V14.01,2013-08-02 09:03:00,
2013-08-02 05:05:00,64.3,64.0,29.91,WNW,294,0.0,0.0,99,0.00,,---,0.00,VWS V14.01,2013-08-02 09:05:00,
2013-08-02 05:08:00,64.2,63.9,29.92,WNW,294,0.0,0.0,99,0.00,,---,0.00,VWS V14.01,2013-08-02 09:08:00,
2013-08-02 05:10:00,64.6,64.3,29.91,WNW,294,0.0,0.0,99,0.00,,---,0.00,VWS V14.01,2013-08-02 09:10:00,
2013-08-02 05:13:00,64.0,63.7,29.92,WNW,294,0.0,0.0,99,0.00,,---,0.00,VWS V14.01,2013-08-02 09:13:00,
2013-08-02 05:15:00,64.6,64.3,29.92,WNW,294,0.0,0.0,99,0.00,,---,0.00,VWS V14.01,2013-08-02 09:15:00,
2013-08-02 05:18:00,64.0,63.7,29.92,WNW,294,0.0,0.0,99,0.00,,---,0.00,VWS V14.01,2013-08-02 09:18:00,
2013-08-02 05:20:00,64.5,64.2,29.92,WNW,294,0.0,0.0,99,0.00,,---,0.00,VWS V14.01,2013-08-02 09:20:00,
2013-08-02 05:23:00,63.9,63.6,29.93,WNW,294,0.0,0.0,99,0.00,,---,0.00,VWS V14.01,2013-08-02 09:23:00,
2013-08-02 05:25:00,64.5,64.2,29.92,WNW,294,0.0,0.0,99,0.00,,---,0.00,VWS V14.01,2013-08-02 09:25:00,
2013-08-02 05:28:00,63.9,63.6,29.93,WNW,294,0.0,0.0,99,0.00,,---,0.00,VWS V14.01,2013-08-02 09:28:00,
2013-08-02 05:30:00,64.3,64.0,29.93,WNW,294,0.0,0.0,99,0.00,,---,0.00,VWS V14.01,2013-08-02 09:30:00,
2013-08-02 05:33:00,63.9,63.6,29.93,WNW,294,0.0,0.0,99,0.00,,---,0.00,VWS V14.01,2013-08-02 09:33:00,
2013-08-02 05:35:00,64.2,63.9,29.93,WNW,294,0.0,0.0,99,0.00,,---,0.00,VWS V14.01,2013-08-02 09:35:00,
2013-08-02 05:38:00,63.8,63.5,29.94,WNW,294,0.0,0.0,99,0.00,,---,0.00,VWS V14.01,2013-08-02 09:38:00,
2013-08-02 05:40:00,64.1,63.8,29.93,WNW,294,0.0,0.0,99,0.00,,---,0.00,VWS V14.01,2013-08-02 09:40:00,
2013-08-02 05:43:00,63.7,63.4,29.94,WNW,294,0.0,0.0,99,0.00,,---,0.00,VWS V14.01,2013-08-02 09:43:00,
2013-08-02 05:45:00,64.1,63.8,29.93,WNW,294,0.0,1.0,99,0.00,,---,0.00,VWS V14.01,2013-08-02 09:45:00,
2013-08-02 05:48:00,63.7,63.4,29.93,WNW,294,0.0,0.0,99,0.00,,---,0.00,VWS V14.01,2013-08-02 09:48:00,
2013-08-02 05:50:00,64.1,63.8,29.93,WNW,294,0.0,1.0,99,0.00,,---,0.00,VWS V14.01,2013-08-02 09:50:00,
2013-08-02 05:53:00,63.7,63.4,29.93,WNW,294,0.0,0.0,99,0.00,,---,0.00,VWS V14.01,2013-08-02 09:53:00,
2013-08-02 05:55:00,64.1,63.8,29.93,WNW,294,0.0,1.0,99,0.00,,---,0.00,VWS V14.01,2013-08-02 09:55:00,
2013-08-02 05:58:00,63.5,63.2,29.93,WNW,294,0.0,0.0,99,0.00,,---,0.00,VWS V14.01,2013-08-02 09:58:00,
2013-08-02 06:00:00,64.2,63.9,29.92,WNW,294,0.0,0.0,99,0.00,,---,0.00,VWS V14.01,2013-08-02 10:00:00,
2013-08-02 06:03:00,63.5,63.2,29.93,WNW,294,0.0,0.0,99,0.00,,---,0.00,VWS V14.01,2013-08-02 10:03:00,
2013-08-02 06:05:00,64.2,63.9,29.92,WNW,294,0.0,0.0,99,0.00,,---,0.00,VWS V14.01,2013-08-02 10:05:00,
2013-08-02 06:08:00,63.5,63.2,29.93,WNW,294,0.0,0.0,99,0.00,,---,0.00,VWS V14.01,2013-08-02 10:08:00,
2013-08-02 06:10:00,64.1,63.8,29.92,WNW,294,0.0,0.0,99,0.00,,---,0.00,VWS V14.01,2013-08-02 10:10:00,
2013-08-02 06:13:00,63.6,63.3,29.93,WNW,294,0.0,0.0,99,0.00,,---,0.00,VWS V14.01,2013-08-02 10:13:00,
2013-08-02 06:15:00,64.0,63.7,29.92,WNW,294,0.0,0.0,99,0.00,,---,0.00,VWS V14.01,2013-08-02 10:15:00,
2013-08-02 06:18:00,63.4,63.1,29.93,WNW,294,0.0,0.0,99,0.00,,---,0.00,VWS V14.01,2013-08-02 10:18:00,
2013-08-02 06:20:00,64.0,63.7,29.92,WNW,294,0.0,0.0,99,0.00,,---,0.00,VWS V14.01,2013-08-02 10:20:00,
2013-08-02 06:23:00,63.3,63.0,29.94,WNW,294,0.0,0.0,99,0.00,,---,0.00,VWS V14.01,2013-08-02 10:23:00,
2013-08-02 06:25:00,63.9,63.6,29.93,WNW,294,0.0,0.0,99,0.00,,---,0.00,VWS V14.01,2013-08-02 10:25:00,
2013-08-02 06:28:00,63.3,63.0,29.94,WNW,294,0.0,0.0,99,0.00,,---,0.00,VWS V14.01,2013-08-02 10:28:00,
2013-08-02 06:30:00,63.9,63.6,29.93,WNW,294,0.0,0.0,99,0.00,,---,0.00,VWS V14.01,2013-08-02 10:30:00,
2013-08-02 06:33:00,63.2,62.9,29.94,WNW,294,0.0,0.0,99,0.00,,---,0.00,VWS V14.01,2013-08-02 10:33:00,
2013-08-02 06:35:00,63.8,63.5,29.94,WNW,294,0.0,0.0,99,0.00,,---,0.00,VWS V14.01,2013-08-02 10:35:00,
2013-08-02 06:39:00,63.2,62.9,29.95,WNW,294,0.0,0.0,99,0.00,,---,0.00,VWS V14.01,2013-08-02 10:39:00,
2013-08-02 06:40:00,63.8,63.5,29.94,WNW,294,0.0,0.0,99,0.00,,---,0.00,VWS V14.01,2013-08-02 10:40:00,
2013-08-02 06:43:00,63.2,62.9,29.95,WNW,294,0.0,0.0,99,0.00,,---,0.00,VWS V14.01,2013-08-02 10:43:00,
2013-08-02 06:45:00,63.6,63.3,29.94,WNW,294,0.0,0.0,99,0.00,,---,0.00,VWS V14.01,2013-08-02 10:45:00,
2013-08-02 06:49:00,63.2,62.9,29.95,WNW,294,0.0,0.0,99,0.00,,---,0.00,VWS V14.01,2013-08-02 10:49:00,
2013-08-02 06:50:00,63.7,63.4,29.93,WNW,294,0.0,0.0,99,0.00,,---,0.00,VWS V14.01,2013-08-02 10:50:00,
2013-08-02 06:54:00,63.3,63.0,29.95,WNW,294,0.0,1.0,99,0.00,,---,0.00,VWS V14.01,2013-08-02 10:54:00,
2013-08-02 06:55:00,63.6,63.3,29.93,WNW,294,0.0,0.0,99,0.00,,---,0.00,VWS V14.01,2013-08-02 10:55:00,
2013-08-02 06:59:00,63.2,62.9,29.95,WNW,294,0.0,0.0,99,0.00,,---,0.00,VWS V14.01,2013-08-02 10:59:00,
2013-08-02 07:00:00,63.5,63.2,29.93,WNW,294,0.0,0.0,99,0.00,,---,0.00,VWS V14.01,2013-08-02 11:00:00,
2013-08-02 07:04:00,63.4,63.1,29.95,WNW,294,0.0,0.0,99,0.00,,---,0.00,VWS V14.01,2013-08-02 11:04:00,
2013-08-02 07:05:00,63.6,63.3,29.93,WNW,294,0.0,0.0,99,0.00,,---,0.00,VWS V14.01,2013-08-02 11:05:00,
2013-08-02 07:09:00,63.4,63.4,29.95,WNW,294,0.0,0.0,100,0.00,,---,0.00,VWS V14.01,2013-08-02 11:09:00,
2013-08-02 07:10:00,63.5,63.2,29.93,WNW,294,0.0,0.0,99,0.00,,---,0.00,VWS V14.01,2013-08-02 11:10:00,
2013-08-02 07:14:00,63.5,63.5,29.95,WNW,294,0.0,0.0,100,0.00,,---,0.00,VWS V14.01,2013-08-02 11:14:00,
2013-08-02 07:15:00,63.6,63.3,29.93,WNW,294,0.0,0.0,99,0.00,,---,0.00,VWS V14.01,2013-08-02 11:15:00,
2013-08-02 07:19:00,63.6,63.6,29.95,WNW,294,0.0,0.0,100,0.00,,---,0.00,VWS V14.01,2013-08-02 11:19:00,
2013-08-02 07:20:00,63.4,63.1,29.93,WNW,294,0.0,0.0,99,0.00,,---,0.00,VWS V14.01,2013-08-02 11:20:00,
2013-08-02 07:24:00,63.6,63.6,29.95,WNW,294,0.0,0.0,100,0.00,,---,0.00,VWS V14.01,2013-08-02 11:24:00,
2013-08-02 07:25:00,63.4,63.1,29.94,WNW,294,0.0,0.0,99,0.00,,---,0.00,VWS V14.01,2013-08-02 11:25:00,
2013-08-02 07:29:00,63.7,63.7,29.95,WNW,294,0.0,0.0,100,0.00,,---,0.00,VWS V14.01,2013-08-02 11:29:00,
2013-08-02 07:30:00,63.2,62.9,29.94,WNW,294,0.0,0.0,99,0.00,,---,0.00,VWS V14.01,2013-08-02 11:30:00,
2013-08-02 07:34:00,63.9,63.9,29.95,WNW,294,0.0,0.0,100,0.00,,---,0.00,VWS V14.01,2013-08-02 11:34:00,
2013-08-02 07:35:00,63.2,62.9,29.94,WNW,294,0.0,0.0,99,0.00,,---,0.00,VWS V14.01,2013-08-02 11:35:00,
2013-08-02 07:39:00,63.9,63.9,29.95,WNW,294,0.0,0.0,100,0.00,,---,0.00,VWS V14.01,2013-08-02 11:39:00,
2013-08-02 07:40:00,63.2,62.9,29.95,WNW,294,0.0,0.0,99,0.00,,---,0.00,VWS V14.01,2013-08-02 11:40:00,
2013-08-02 07:44:00,64.2,64.2,29.95,WNW,294,0.0,0.0,100,0.00,,---,0.00,VWS V14.01,2013-08-02 11:44:00,
2013-08-02 07:45:00,63.2,62.9,29.95,WNW,294,0.0,0.0,99,0.00,,---,0.00,VWS V14.01,2013-08-02 11:45:00,
2013-08-02 07:49:00,64.3,64.3,29.95,WNW,294,0.0,0.0,100,0.00,,---,0.00,VWS V14.01,2013-08-02 11:49:00,
2013-08-02 07:50:00,63.2,62.9,29.95,WNW,294,0.0,0.0,99,0.00,,---,0.00,VWS V14.01,2013-08-02 11:50:00,
2013-08-02 07:54:00,64.5,64.5,29.95,WNW,294,0.0,0.0,100,0.00,,---,0.00,VWS V14.01,2013-08-02 11:54:00,
2013-08-02 07:55:00,63.2,62.9,29.95,WNW,294,0.0,1.0,99,0.00,,---,0.00,VWS V14.01,2013-08-02 11:55:00,
2013-08-02 07:59:00,64.6,64.6,29.95,WNW,294,0.0,1.0,100,0.00,,---,0.00,VWS V14.01,2013-08-02 11:59:00,
2013-08-02 08:00:00,63.2,62.9,29.95,WNW,294,0.0,0.0,99,0.00,,---,0.00,VWS V14.01,2013-08-02 12:00:00,
2013-08-02 08:04:00,64.7,64.7,29.96,WNW,294,0.0,0.0,100,0.00,,---,0.00,VWS V14.01,2013-08-02 12:04:00,
2013-08-02 08:05:00,63.3,63.3,29.95,WNW,294,0.0,0.0,100,0.00,,---,0.00,VWS V14.01,2013-08-02 12:05:00,
2013-08-02 08:09:00,64.9,64.9,29.96,WNW,294,0.0,0.0,100,0.00,,---,0.00,VWS V14.01,2013-08-02 12:09:00,
2013-08-02 08:10:00,63.4,63.4,29.95,WNW,294,0.0,0.0,100,0.00,,---,0.00,VWS V14.01,2013-08-02 12:10:00,
2013-08-02 08:14:00,65.1,65.1,29.96,WNW,294,0.0,0.0,100,0.00,,---,0.00,VWS V14.01,2013-08-02 12:14:00,
2013-08-02 08:15:00,63.6,63.6,29.95,WNW,294,0.0,0.0,100,0.00,,---,0.00,VWS V14.01,2013-08-02 12:15:00,
2013-08-02 08:19:00,65.3,65.3,29.97,WNW,294,0.0,0.0,100,0.00,,---,0.00,VWS V14.01,2013-08-02 12:19:00,
2013-08-02 08:20:00,63.6,63.6,29.95,WNW,294,0.0,0.0,100,0.00,,---,0.00,VWS V14.01,2013-08-02 12:20:00,
2013-08-02 08:24:00,65.6,65.6,29.97,WNW,294,0.0,0.0,100,0.00,,---,0.00,VWS V14.01,2013-08-02 12:24:00,
2013-08-02 08:25:00,63.6,63.6,29.95,WNW,294,0.0,0.0,100,0.00,,---,0.00,VWS V14.01,2013-08-02 12:25:00,
2013-08-02 08:29:00,65.9,65.9,29.98,WNW,294,0.0,0.0,100,0.00,,---,0.00,VWS V14.01,2013-08-02 12:29:00,
2013-08-02 08:30:00,63.7,63.7,29.95,WNW,294,0.0,0.0,100,0.00,,---,0.00,VWS V14.01,2013-08-02 12:30:00,
2013-08-02 08:34:00,66.3,66.3,29.98,WNW,294,0.0,0.0,100,0.00,,---,0.00,VWS V14.01,2013-08-02 12:34:00,
2013-08-02 08:35:00,63.9,63.9,29.95,WNW,294,0.0,0.0,100,0.00,,---,0.00,VWS V14.01,2013-08-02 12:35:00,
2013-08-02 08:39:00,66.8,66.8,29.97,WNW,294,0.0,0.0,100,0.00,,---,0.00,VWS V14.01,2013-08-02 12:39:00,
2013-08-02 08:40:00,64.0,64.0,29.95,WNW,294,0.0,0.0,100,0.00,,---,0.00,VWS V14.01,2013-08-02 12:40:00,
2013-08-02 08:44:00,67.0,66.7,29.98,East,96,0.0,0.0,99,0.00,,---,0.00,VWS V14.01,2013-08-02 12:44:00,
2013-08-02 08:45:00,64.2,64.2,29.95,WNW,294,0.0,0.0,100,0.00,,---,0.00,VWS V14.01,2013-08-02 12:45:00,
2013-08-02 08:49:00,67.5,67.2,29.97,East,96,0.0,0.0,99,0.00,,---,0.00,VWS V14.01,2013-08-02 12:49:00,
2013-08-02 08:50:00,64.3,64.3,29.95,WNW,294,0.0,0.0,100,0.00,,---,0.00,VWS V14.01,2013-08-02 12:50:00,
2013-08-02 08:54:00,67.9,67.0,29.98,East,96,0.0,0.0,97,0.00,,---,0.00,VWS V14.01,2013-08-02 12:54:00,
2013-08-02 08:55:00,64.5,64.5,29.95,WNW,294,0.0,0.0,100,0.00,,---,0.00,VWS V14.01,2013-08-02 12:55:00,
2013-08-02 08:59:00,68.3,67.4,29.98,East,96,0.0,0.0,97,0.00,,---,0.00,VWS V14.01,2013-08-02 12:59:00,
2013-08-02 09:00:00,64.6,64.6,29.95,WNW,294,0.0,1.0,100,0.00,,---,0.00,VWS V14.01,2013-08-02 13:00:00,
2013-08-02 09:04:00,69.0,67.2,29.98,East,96,0.0,0.0,94,0.00,,---,0.00,VWS V14.01,2013-08-02 13:04:00,
2013-08-02 09:05:00,64.7,64.7,29.96,WNW,294,0.0,0.0,100,0.00,,---,0.00,VWS V14.01,2013-08-02 13:05:00,
2013-08-02 09:09:00,69.8,67.7,29.97,East,85,1.0,1.0,93,0.00,,---,0.00,VWS V14.01,2013-08-02 13:09:00,
2013-08-02 09:10:00,64.9,64.9,29.96,WNW,294,0.0,0.0,100,0.00,,---,0.00,VWS V14.01,2013-08-02 13:10:00,
2013-08-02 09:14:00,70.5,68.1,29.98,ENE,75,0.0,2.0,92,0.00,,---,0.00,VWS V14.01,2013-08-02 13:14:00,
2013-08-02 09:15:00,65.1,65.1,29.96,WNW,294,0.0,0.0,100,0.00,,---,0.00,VWS V14.01,2013-08-02 13:15:00,
2013-08-02 09:19:00,71.6,68.8,29.98,East,85,0.0,1.0,91,0.00,,---,0.00,VWS V14.01,2013-08-02 13:19:00,
2013-08-02 09:20:00,65.4,65.4,29.97,WNW,294,0.0,0.0,100,0.00,,---,0.00,VWS V14.01,2013-08-02 13:20:00,
2013-08-02 09:24:00,72.4,68.0,29.98,NNE,24,2.0,2.0,86,0.00,,---,0.00,VWS V14.01,2013-08-02 13:24:00,
2013-08-02 09:25:00,65.6,65.6,29.97,WNW,294,0.0,0.0,100,0.00,,---,0.00,VWS V14.01,2013-08-02 13:25:00,
2013-08-02 09:29:00,72.7,67.9,29.98,ESE,104,1.0,2.0,85,0.00,,---,0.00,VWS V14.01,2013-08-02 13:29:00,
2013-08-02 09:30:00,65.9,65.9,29.98,WNW,294,0.0,0.0,100,0.00,,---,0.00,VWS V14.01,2013-08-02 13:30:00,
2013-08-02 09:34:00,73.9,68.8,29.97,ESE,108,0.0,1.0,84,0.00,,---,0.00,VWS V14.01,2013-08-02 13:34:00,
2013-08-02 09:35:00,66.3,66.3,29.98,WNW,294,0.0,0.0,100,0.00,,---,0.00,VWS V14.01,2013-08-02 13:35:00,
2013-08-02 09:39:00,75.1,67.8,29.98,ESE,115,2.0,2.0,78,0.00,,---,0.00,VWS V14.01,2013-08-02 13:39:00,
2013-08-02 09:40:00,66.9,66.9,29.97,WNW,294,0.0,0.0,100,0.00,,---,0.00,VWS V14.01,2013-08-02 13:40:00,
2013-08-02 09:44:00,75.3,67.2,29.98,ENE,57,1.0,2.0,76,0.00,,---,0.00,VWS V14.01,2013-08-02 13:44:00,
2013-08-02 09:45:00,67.0,66.7,29.98,East,96,0.0,0.0,99,0.00,,---,0.00,VWS V14.01,2013-08-02 13:45:00,
2013-08-02 09:49:00,75.2,67.5,29.98,ESE,113,3.0,4.0,77,0.00,,---,0.00,VWS V14.01,2013-08-02 13:49:00,
2013-08-02 09:50:00,67.5,67.2,29.97,East,96,0.0,0.0,99,0.00,,---,0.00,VWS V14.01,2013-08-02 13:50:00,
2013-08-02 09:54:00,75.8,68.1,29.99,ENE,64,2.0,2.0,77,0.00,,---,0.00,VWS V14.01,2013-08-02 13:54:00,
2013-08-02 09:55:00,67.9,67.3,29.98,East,96,0.0,0.0,98,0.00,,---,0.00,VWS V14.01,2013-08-02 13:55:00,
2013-08-02 09:59:00,76.4,68.7,29.99,NE,52,1.0,4.0,77,0.00,,---,0.00,VWS V14.01,2013-08-02 13:59:00,
2013-08-02 10:00:00,68.4,67.5,29.98,East,96,0.0,0.0,97,0.00,,---,0.00,VWS V14.01,2013-08-02 14:00:00,
2013-08-02 10:04:00,76.7,67.4,29.99,NE,46,1.0,6.0,73,0.00,,---,0.00,VWS V14.01,2013-08-02 14:04:00,
2013-08-02 10:05:00,69.0,66.9,29.98,East,96,0.0,1.0,93,0.00,,---,0.00,VWS V14.01,2013-08-02 14:05:00,
2013-08-02 10:09:00,76.9,67.2,29.99,East,83,3.0,4.0,72,0.00,,---,0.00,VWS V14.01,2013-08-02 14:09:00,
2013-08-02 10:10:00,69.9,67.8,29.97,East,84,1.0,1.0,93,0.00,,---,0.00,VWS V14.01,2013-08-02 14:10:00,
2013-08-02 10:14:00,76.8,67.1,29.99,NNE,26,2.0,7.0,72,0.00,,---,0.00,VWS V14.01,2013-08-02 14:14:00,
2013-08-02 10:15:00,70.5,68.1,29.98,ENE,75,0.0,2.0,92,0.00,,---,0.00,VWS V14.01,2013-08-02 14:15:00,
2013-08-02 10:19:00,77.0,67.7,29.99,NNE,18,2.0,3.0,73,0.00,,---,0.00,VWS V14.01,2013-08-02 14:19:00,
2013-08-02 10:20:00,71.6,68.8,29.98,East,85,0.0,1.0,91,0.00,,---,0.00,VWS V14.01,2013-08-02 14:20:00,
2013-08-02 10:24:00,78.1,69.1,29.99,NW,324,2.0,2.0,74,0.00,,---,0.00,VWS V14.01,2013-08-02 14:24:00,
2013-08-02 10:25:00,72.4,68.0,29.98,NNE,32,2.0,2.0,86,0.00,,---,0.00,VWS V14.01,2013-08-02 14:25:00,
2013-08-02 10:29:00,77.7,67.1,29.99,NE,41,0.0,4.0,70,0.00,,---,0.00,VWS V14.01,2013-08-02 14:29:00,
2013-08-02 10:30:00,72.8,68.0,29.98,ESE,104,0.0,2.0,85,0.00,,---,0.00,VWS V14.01,2013-08-02 14:30:00,
2013-08-02 10:34:00,78.4,67.8,29.99,ENE,66,0.0,4.0,70,0.00,,---,0.00,VWS V14.01,2013-08-02 14:34:00,
2013-08-02 10:35:00,78.5,67.9,29.99,ENE,60,1.0,4.0,70,0.00,,---,0.00,VWS V14.01,2013-08-02 14:35:00,
2013-08-02 10:39:00,78.8,67.8,29.99,ENE,65,0.0,4.0,69,0.00,,---,0.00,VWS V14.01,2013-08-02 14:39:00,
2013-08-02 10:40:00,75.0,67.7,29.98,SSE,148,2.0,3.0,78,0.00,,---,0.00,VWS V14.01,2013-08-02 14:40:00,
2013-08-02 10:45:00,78.9,67.0,29.99,ENE,70,1.0,1.0,67,0.00,,---,0.00,VWS V14.01,2013-08-02 14:45:00,
2013-08-02 10:50:00,78.5,67.5,29.99,NW,326,1.0,1.0,69,0.00,,---,0.00,VWS V14.01,2013-08-02 14:50:00,
2013-08-02 10:55:00,79.1,68.1,29.99,NE,47,0.0,0.0,69,0.00,,---,0.00,VWS V14.01,2013-08-02 14:55:00,
2013-08-02 11:00:00,80.2,68.3,29.99,East,101,2.0,3.0,67,0.00,,---,0.00,VWS V14.01,2013-08-02 15:00:00,
2013-08-02 11:05:00,80.3,67.5,29.99,ENE,63,1.0,2.0,65,0.00,,---,0.00,VWS V14.01,2013-08-02 15:05:00,
2013-08-02 11:10:00,79.9,66.7,29.99,NE,53,4.0,4.0,64,0.00,,---,0.00,VWS V14.01,2013-08-02 15:10:00,
2013-08-02 11:15:00,79.6,67.7,29.99,NE,52,1.0,1.0,67,0.00,,---,0.00,VWS V14.01,2013-08-02 15:15:00,
2013-08-02 11:20:00,80.0,66.7,29.99,NE,49,2.0,2.0,64,0.00,,---,0.00,VWS V14.01,2013-08-02 15:20:00,
2013-08-02 11:25:00,80.3,67.5,29.99,NE,37,1.0,1.0,65,0.00,,---,0.00,VWS V14.01,2013-08-02 15:25:00,
2013-08-02 11:30:00,80.9,67.1,29.99,NE,47,3.0,3.0,63,0.00,,---,0.00,VWS V14.01,2013-08-02 15:30:00,
2013-08-02 11:35:00,81.3,68.4,29.99,NE,34,0.0,2.0,65,0.00,,---,0.00,VWS V14.01,2013-08-02 15:35:00,
2013-08-02 11:40:00,81.7,67.4,29.99,North,9,2.0,3.0,62,0.00,,---,0.00,VWS V14.01,2013-08-02 15:40:00,
2013-08-02 11:45:00,81.5,67.7,29.99,ENE,57,0.0,1.0,63,0.00,,---,0.00,VWS V14.01,2013-08-02 15:45:00,
2013-08-02 11:50:00,81.7,67.9,29.99,North,2,4.0,5.0,63,0.00,,---,0.00,VWS V14.01,2013-08-02 15:50:00,
2013-08-02 11:55:00,81.9,67.1,29.99,ESE,117,2.0,4.0,61,0.00,,---,0.00,VWS V14.01,2013-08-02 15:55:00,
2013-08-02 12:00:00,81.7,66.9,29.99,East,96,3.0,4.0,61,0.00,,---,0.00,VWS V14.01,2013-08-02 16:00:00,
2013-08-02 12:05:00,80.4,66.7,29.99,ENE,59,4.0,7.0,63,0.00,,---,0.00,VWS V14.01,2013-08-02 16:05:00,
2013-08-02 12:10:00,80.4,67.1,29.99,ESE,120,2.0,4.0,64,0.00,,---,0.00,VWS V14.01,2013-08-02 16:10:00,
2013-08-02 12:15:00,81.3,67.1,29.99,ENE,64,1.0,2.0,62,0.00,,---,0.00,VWS V14.01,2013-08-02 16:15:00,
2013-08-02 12:20:00,81.4,68.5,29.99,NE,47,2.0,4.0,65,0.00,,---,0.00,VWS V14.01,2013-08-02 16:20:00,
2013-08-02 12:25:00,81.7,68.3,29.99,NW,310,0.0,4.0,64,0.00,,---,0.00,VWS V14.01,2013-08-02 16:25:00,
2013-08-02 12:30:00,82.1,66.4,29.99,NNW,339,0.0,2.0,59,0.00,,---,0.00,VWS V14.01,2013-08-02 16:30:00,
2013-08-02 12:35:00,83.3,68.5,29.99,NE,53,0.0,1.0,61,0.00,,---,0.00,VWS V14.01,2013-08-02 16:35:00,
2013-08-02 12:40:00,83.6,67.3,29.99,East,101,3.0,5.0,58,0.00,,---,0.00,VWS V14.01,2013-08-02 16:40:00,
2013-08-02 12:45:00,83.7,66.9,29.99,North,349,1.0,1.0,57,0.00,,---,0.00,VWS V14.01,2013-08-02 16:45:00,
2013-08-02 12:50:00,84.3,67.4,29.99,NE,44,0.0,2.0,57,0.00,,---,0.00,VWS V14.01,2013-08-02 16:50:00,
2013-08-02 12:55:00,83.9,66.0,30.00,NE,55,2.0,3.0,55,0.00,,---,0.00,VWS V14.01,2013-08-02 16:55:00,
2013-08-02 13:00:00,82.9,66.1,30.00,East,95,3.0,5.0,57,0.00,,---,0.00,VWS V14.01,2013-08-02 17:00:00,
2013-08-02 13:05:00,82.9,66.1,30.00,West,265,0.0,0.0,57,0.00,,---,0.00,VWS V14.01,2013-08-02 17:05:00,
2013-08-02 13:10:00,84.2,67.8,30.00,ESE,113,1.0,2.0,58,0.00,,---,0.00,VWS V14.01,2013-08-02 17:10:00,
2013-08-02 13:15:00,84.2,67.8,30.00,NNW,327,0.0,3.0,58,0.00,,---,0.00,VWS V14.01,2013-08-02 17:15:00,
2013-08-02 13:20:00,84.7,67.3,30.00,NE,39,4.0,4.0,56,0.00,,---,0.00,VWS V14.01,2013-08-02 17:20:00,
2013-08-02 13:25:00,84.5,65.5,30.00,NE,53,1.0,2.0,53,0.00,,---,0.00,VWS V14.01,2013-08-02 17:25:00,
2013-08-02 13:30:00,84.2,66.8,29.99,NE,46,2.0,3.0,56,0.00,,---,0.00,VWS V14.01,2013-08-02 17:30:00,
2013-08-02 13:35:00,83.9,66.0,29.99,ESE,122,2.0,2.0,55,0.00,,---,0.00,VWS V14.01,2013-08-02 17:35:00,
2013-08-02 13:40:00,83.9,67.6,29.99,SSE,162,0.0,2.0,58,0.00,,---,0.00,VWS V14.01,2013-08-02 17:40:00,
2013-08-02 13:45:00,84.4,68.0,29.99,NNW,334,0.0,1.0,58,0.00,,---,0.00,VWS V14.01,2013-08-02 17:45:00,
2013-08-02 13:50:00,84.7,65.1,29.99,West,266,1.0,1.0,52,0.00,,---,0.00,VWS V14.01,2013-08-02 17:50:00,
2013-08-02 13:55:00,83.9,65.5,29.99,NE,56,2.0,4.0,54,0.00,,---,0.00,VWS V14.01,2013-08-02 17:55:00,
2013-08-02 13:56:00,85.3,66.8,29.98,NE,37,2.0,2.0,54,0.00,,---,0.00,VWS V14.01,2013-08-02 17:56:00,
2013-08-02 14:00:00,83.1,65.3,30.00,East,91,2.0,5.0,55,0.00,,---,0.00,VWS V14.01,2013-08-02 18:00:00,
2013-08-02 14:01:00,84.8,64.1,29.98,East,79,0.0,2.0,50,0.00,,---,0.00,VWS V14.01,2013-08-02 18:01:00,
2013-08-02 14:05:00,82.8,66.0,30.00,West,266,0.0,5.0,57,0.00,,---,0.00,VWS V14.01,2013-08-02 18:05:00,
2013-08-02 14:06:00,85.3,64.0,29.98,WSW,257,1.0,1.0,49,0.00,,---,0.00,VWS V14.01,2013-08-02 18:06:00,
2013-08-02 14:10:00,84.0,68.1,30.00,NE,43,2.0,2.0,59,0.00,,---,0.00,VWS V14.01,2013-08-02 18:10:00,
2013-08-02 14:11:00,84.8,66.3,29.98,North,5,0.0,1.0,54,0.00,,---,0.00,VWS V14.01,2013-08-02 18:11:00,
2013-08-02 14:15:00,85.5,64.8,29.98,West,269,1.0,2.0,50,0.00,,---,0.00,VWS V14.01,2013-08-02 18:15:00,
2013-08-02 14:20:00,85.8,66.2,29.98,SSE,148,1.0,1.0,52,0.00,,---,0.00,VWS V14.01,2013-08-02 18:20:00,
2013-08-02 14:25:00,84.5,65.5,30.00,WNW,301,1.0,4.0,53,0.00,,---,0.00,VWS V14.01,2013-08-02 18:25:00,
2013-08-02 14:26:00,86.8,66.5,29.98,East,93,3.0,4.0,51,0.00,,---,0.00,VWS V14.01,2013-08-02 18:26:00,
2013-08-02 14:30:00,86.4,67.3,29.98,SSW,212,0.0,1.0,53,0.00,,---,0.00,VWS V14.01,2013-08-02 18:30:00,
2013-08-02 14:35:00,83.9,66.0,29.99,West,279,1.0,5.0,55,0.00,,---,0.00,VWS V14.01,2013-08-02 18:35:00,
2013-08-02 14:36:00,86.8,68.2,29.98,NE,54,1.0,1.0,54,0.00,,---,0.00,VWS V14.01,2013-08-02 18:36:00,
2013-08-02 14:40:00,86.6,66.9,29.98,SSE,160,1.0,1.0,52,0.00,,---,0.00,VWS V14.01,2013-08-02 18:40:00,
2013-08-02 14:45:00,84.3,66.4,29.99,WNW,292,1.0,3.0,55,0.00,,---,0.00,VWS V14.01,2013-08-02 18:45:00,
2013-08-02 14:46:00,86.3,64.9,29.98,SSE,152,2.0,6.0,49,0.00,,---,0.00,VWS V14.01,2013-08-02 18:46:00,
2013-08-02 14:50:00,84.6,66.1,29.99,WNW,295,0.0,4.0,54,0.00,,---,0.00,VWS V14.01,2013-08-02 18:50:00,
2013-08-02 14:51:00,86.1,64.7,29.98,ESE,103,0.0,3.0,49,0.00,,---,0.00,VWS V14.01,2013-08-02 18:51:00,
2013-08-02 14:55:00,85.2,66.7,29.99,NE,35,1.0,3.0,54,0.00,,---,0.00,VWS V14.01,2013-08-02 18:55:00,
2013-08-02 14:56:00,86.3,66.6,29.98,East,88,3.0,4.0,52,0.00,,---,0.00,VWS V14.01,2013-08-02 18:56:00,
2013-08-02 15:00:00,84.9,65.9,29.98,NE,53,0.0,3.0,53,0.00,,---,0.00,VWS V14.01,2013-08-02 19:00:00,
2013-08-02 15:01:00,85.8,66.2,29.98,East,86,2.0,4.0,52,0.00,,---,0.00,VWS V14.01,2013-08-02 19:01:00,
2013-08-02 15:05:00,85.4,63.5,29.98,WNW,302,0.0,2.0,48,0.00,,---,0.00,VWS V14.01,2013-08-02 19:05:00,
2013-08-02 15:06:00,85.2,65.1,29.98,ENE,78,0.0,3.0,51,0.00,,---,0.00,VWS V14.01,2013-08-02 19:06:00,
2013-08-02 15:10:00,84.8,65.2,29.98,WNW,297,1.0,4.0,52,0.00,,---,0.00,VWS V14.01,2013-08-02 19:10:00,
2013-08-02 15:11:00,86.7,65.3,29.98,West,276,2.0,2.0,49,0.00,,---,0.00,VWS V14.01,2013-08-02 19:11:00,
2013-08-02 15:15:00,85.5,65.3,29.98,NNE,33,0.0,2.0,51,0.00,,---,0.00,VWS V14.01,2013-08-02 19:15:00,
2013-08-02 15:16:00,86.1,63.5,29.98,WNW,298,1.0,2.0,47,0.00,,---,0.00,VWS V14.01,2013-08-02 19:16:00,
2013-08-02 15:20:00,85.6,67.1,29.98,NE,51,0.0,3.0,54,0.00,,---,0.00,VWS V14.01,2013-08-02 19:20:00,
2013-08-02 15:21:00,86.8,65.4,29.98,North,4,0.0,1.0,49,0.00,,---,0.00,VWS V14.01,2013-08-02 19:21:00,
2013-08-02 15:25:00,87.0,67.3,29.98,ENE,75,1.0,4.0,52,0.00,,---,0.00,VWS V14.01,2013-08-02 19:25:00,
2013-08-02 15:26:00,87.1,64.4,29.97,SE,142,2.0,5.0,47,0.00,,---,0.00,VWS V14.01,2013-08-02 19:26:00,
2013-08-02 15:30:00,86.3,66.6,29.98,WSW,240,1.0,4.0,52,0.00,,---,0.00,VWS V14.01,2013-08-02 19:30:00,
2013-08-02 15:31:00,86.4,64.4,29.97,NE,49,0.0,1.0,48,0.00,,---,0.00,VWS V14.01,2013-08-02 19:31:00,
2013-08-02 15:35:00,86.8,67.6,29.98,NNW,327,0.0,3.0,53,0.00,,---,0.00,VWS V14.01,2013-08-02 19:35:00,
2013-08-02 15:37:00,86.5,65.1,29.97,NE,47,2.0,3.0,49,0.00,,---,0.00,VWS V14.01,2013-08-02 19:37:00,
2013-08-02 15:40:00,86.4,67.8,29.98,SSE,155,1.0,5.0,54,0.00,,---,0.00,VWS V14.01,2013-08-02 19:40:00,
2013-08-02 15:42:00,86.0,63.4,29.97,NE,47,0.0,2.0,47,0.00,,---,0.00,VWS V14.01,2013-08-02 19:42:00,
2013-08-02 15:45:00,86.9,65.5,29.98,East,97,4.0,5.0,49,0.00,,---,0.00,VWS V14.01,2013-08-02 19:45:00,
2013-08-02 15:47:00,86.2,63.0,29.97,SSW,199,1.0,1.0,46,0.00,,---,0.00,VWS V14.01,2013-08-02 19:47:00,
2013-08-02 15:50:00,86.2,68.2,29.98,ESE,115,0.0,6.0,55,0.00,,---,0.00,VWS V14.01,2013-08-02 19:50:00,
2013-08-02 15:52:00,87.8,65.7,29.97,NE,34,0.0,2.0,48,0.00,,---,0.00,VWS V14.01,2013-08-02 19:52:00,
2013-08-02 15:55:00,86.2,66.0,29.98,East,82,1.0,3.0,51,0.00,,---,0.00,VWS V14.01,2013-08-02 19:55:00,
2013-08-02 15:57:00,87.4,62.8,29.97,East,91,1.0,4.0,44,0.00,,---,0.00,VWS V14.01,2013-08-02 19:57:00,
2013-08-02 16:00:00,86.1,63.5,29.98,East,82,3.0,4.0,47,0.00,,---,0.00,VWS V14.01,2013-08-02 20:00:00,
2013-08-02 16:02:00,86.2,64.8,29.97,NE,46,1.0,2.0,49,0.00,,---,0.00,VWS V14.01,2013-08-02 20:02:00,
2013-08-02 16:05:00,85.2,65.6,29.98,ENE,68,2.0,6.0,52,0.00,,---,0.00,VWS V14.01,2013-08-02 20:05:00,
2013-08-02 16:07:00,86.8,61.6,29.97,SW,227,0.0,3.0,43,0.00,,---,0.00,VWS V14.01,2013-08-02 20:07:00,
2013-08-02 16:10:00,86.5,64.5,29.98,NE,53,1.0,3.0,48,0.00,,---,0.00,VWS V14.01,2013-08-02 20:10:00,
2013-08-02 16:12:00,88.0,65.3,29.97,SE,142,1.0,2.0,47,0.00,,---,0.00,VWS V14.01,2013-08-02 20:12:00,
2013-08-02 16:15:00,86.4,65.0,29.98,NNW,348,1.0,2.0,49,0.00,,---,0.00,VWS V14.01,2013-08-02 20:15:00,
2013-08-02 16:17:00,87.8,65.7,29.97,ESE,117,0.0,1.0,48,0.00,,---,0.00,VWS V14.01,2013-08-02 20:17:00,
2013-08-02 16:20:00,86.2,64.2,29.98,North,4,0.0,2.0,48,0.00,,---,0.00,VWS V14.01,2013-08-02 20:20:00,
2013-08-02 16:22:00,87.7,66.8,29.97,ESE,111,0.0,1.0,50,0.00,,---,0.00,VWS V14.01,2013-08-02 20:22:00,
2013-08-02 16:25:00,87.4,65.3,29.98,SE,140,1.0,3.0,48,0.00,,---,0.00,VWS V14.01,2013-08-02 20:25:00,
2013-08-02 16:27:00,86.1,64.1,29.97,ENE,76,0.0,1.0,48,0.00,,---,0.00,VWS V14.01,2013-08-02 20:27:00,
2013-08-02 16:30:00,86.5,64.5,29.97,ESE,122,1.0,5.0,48,0.00,,---,0.00,VWS V14.01,2013-08-02 20:30:00,
2013-08-02 16:32:00,85.7,64.9,29.97,ENE,66,0.0,1.0,50,0.00,,---,0.00,VWS V14.01,2013-08-02 20:32:00,
2013-08-02 16:35:00,86.4,64.4,29.97,ENE,58,0.0,5.0,48,0.00,,---,0.00,VWS V14.01,2013-08-02 20:35:00,
2013-08-02 16:37:00,85.6,64.3,29.96,East,89,1.0,1.0,49,0.00,,---,0.00,VWS V14.01,2013-08-02 20:37:00,
2013-08-02 16:40:00,86.0,63.4,29.97,NNW,333,2.0,5.0,47,0.00,,---,0.00,VWS V14.01,2013-08-02 20:40:00,
2013-08-02 16:42:00,85.5,65.9,29.96,SE,136,0.0,1.0,52,0.00,,---,0.00,VWS V14.01,2013-08-02 20:42:00,
2013-08-02 16:45:00,86.1,62.9,29.97,NE,49,0.0,4.0,46,0.00,,---,0.00,VWS V14.01,2013-08-02 20:45:00,
2013-08-02 16:47:00,85.7,63.2,29.96,ESE,117,0.0,4.0,47,0.00,,---,0.00,VWS V14.01,2013-08-02 20:47:00,
2013-08-02 16:50:00,86.9,63.7,29.97,WSW,254,1.0,3.0,46,0.00,,---,0.00,VWS V14.01,2013-08-02 20:50:00,
2013-08-02 16:52:00,86.1,61.7,29.96,East,90,1.0,3.0,44,0.00,,---,0.00,VWS V14.01,2013-08-02 20:52:00,
2013-08-02 16:55:00,88.1,64.1,29.97,ENE,64,3.0,3.0,45,0.00,,---,0.00,VWS V14.01,2013-08-02 20:55:00,
2013-08-02 16:57:00,86.7,62.2,29.96,ESE,115,2.0,2.0,44,0.00,,---,0.00,VWS V14.01,2013-08-02 20:57:00,
2013-08-02 17:00:00,86.6,63.4,29.97,East,97,2.0,4.0,46,0.00,,---,0.00,VWS V14.01,2013-08-02 21:00:00,
2013-08-02 17:02:00,87.2,61.3,29.96,West,262,0.0,2.0,42,0.00,,---,0.00,VWS V14.01,2013-08-02 21:02:00,
2013-08-02 17:05:00,86.5,64.5,29.97,ESE,105,2.0,2.0,48,0.00,,---,0.00,VWS V14.01,2013-08-02 21:05:00,
2013-08-02 17:07:00,87.1,61.9,29.96,East,85,0.0,3.0,43,0.00,,---,0.00,VWS V14.01,2013-08-02 21:07:00,
2013-08-02 17:10:00,87.6,62.4,29.97,West,266,1.0,3.0,43,0.00,,---,0.00,VWS V14.01,2013-08-02 21:10:00,
2013-08-02 17:12:00,87.1,62.6,29.95,SSE,163,0.0,1.0,44,0.00,,---,0.00,VWS V14.01,2013-08-02 21:12:00,
2013-08-02 17:15:00,88.1,62.1,29.97,ESE,117,1.0,2.0,42,0.00,,---,0.00,VWS V14.01,2013-08-02 21:15:00,
2013-08-02 17:17:00,88.0,63.4,29.95,East,88,0.0,3.0,44,0.00,,---,0.00,VWS V14.01,2013-08-02 21:17:00,
2013-08-02 17:20:00,87.9,65.8,29.97,ESE,117,0.0,1.0,48,0.00,,---,0.00,VWS V14.01,2013-08-02 21:20:00,
2013-08-02 17:22:00,87.2,64.5,29.95,East,91,0.0,4.0,47,0.00,,---,0.00,VWS V14.01,2013-08-02 21:22:00,
2013-08-02 17:25:00,86.9,64.9,29.97,ENE,75,1.0,2.0,48,0.00,,---,0.00,VWS V14.01,2013-08-02 21:25:00,
2013-08-02 17:27:00,86.6,61.5,29.95,ENE,74,2.0,4.0,43,0.00,,---,0.00,VWS V14.01,2013-08-02 21:27:00,
2013-08-02 17:30:00,85.6,66.5,29.97,ENE,66,0.0,1.0,53,0.00,,---,0.00,VWS V14.01,2013-08-02 21:30:00,
2013-08-02 17:32:00,85.7,61.9,29.95,East,79,0.0,2.0,45,0.00,,---,0.00,VWS V14.01,2013-08-02 21:32:00,
2013-08-02 17:35:00,85.7,65.5,29.97,ENE,66,0.0,1.0,51,0.00,,---,0.00,VWS V14.01,2013-08-02 21:35:00,
2013-08-02 17:37:00,85.6,61.8,29.95,ENE,63,0.0,1.0,45,0.00,,---,0.00,VWS V14.01,2013-08-02 21:37:00,
2013-08-02 17:40:00,85.4,65.2,29.96,East,89,0.0,2.0,51,0.00,,---,0.00,VWS V14.01,2013-08-02 21:40:00,
2013-08-02 17:42:00,85.9,64.5,29.95,ENE,63,0.0,1.0,49,0.00,,---,0.00,VWS V14.01,2013-08-02 21:42:00,
2013-08-02 17:45:00,85.7,63.2,29.96,NE,52,1.0,2.0,47,0.00,,---,0.00,VWS V14.01,2013-08-02 21:45:00,
2013-08-02 17:47:00,86.3,64.9,29.95,ESE,123,1.0,1.0,49,0.00,,---,0.00,VWS V14.01,2013-08-02 21:47:00,
2013-08-02 17:50:00,85.9,62.7,29.96,SE,143,1.0,4.0,46,0.00,,---,0.00,VWS V14.01,2013-08-02 21:50:00,
2013-08-02 17:52:00,86.1,63.5,29.95,ENE,70,1.0,2.0,47,0.00,,---,0.00,VWS V14.01,2013-08-02 21:52:00,
2013-08-02 17:55:00,86.3,61.8,29.96,ESE,120,1.0,3.0,44,0.00,,---,0.00,VWS V14.01,2013-08-02 21:55:00,
2013-08-02 17:57:00,86.6,63.4,29.95,ESE,105,2.0,2.0,46,0.00,,---,0.00,VWS V14.01,2013-08-02 21:57:00,
2013-08-02 18:00:00,86.7,60.9,29.96,ESE,105,0.0,2.0,42,0.00,,---,0.00,VWS V14.01,2013-08-02 22:00:00,
2013-08-02 18:02:00,86.2,67.6,29.95,ESE,110,0.0,3.0,54,0.00,,---,0.00,VWS V14.01,2013-08-02 22:02:00,
2013-08-02 18:05:00,87.7,63.1,29.96,East,95,2.0,2.0,44,0.00,,---,0.00,VWS V14.01,2013-08-02 22:05:00,
2013-08-02 18:07:00,86.3,63.7,29.94,ESE,111,2.0,2.0,47,0.00,,---,0.00,VWS V14.01,2013-08-02 22:07:00,
2013-08-02 18:10:00,86.8,61.6,29.95,ENE,72,1.0,3.0,43,0.00,,---,0.00,VWS V14.01,2013-08-02 22:10:00,
2013-08-02 18:12:00,85.9,64.0,29.94,East,100,1.0,1.0,48,0.00,,---,0.00,VWS V14.01,2013-08-02 22:12:00,
2013-08-02 18:15:00,87.8,63.2,29.95,West,259,0.0,1.0,44,0.00,,---,0.00,VWS V14.01,2013-08-02 22:15:00,
2013-08-02 18:17:00,85.4,65.8,29.94,East,100,0.0,1.0,52,0.00,,---,0.00,VWS V14.01,2013-08-02 22:17:00,
2013-08-02 18:20:00,87.7,63.7,29.95,ESE,105,3.0,3.0,45,0.00,,---,0.00,VWS V14.01,2013-08-02 22:20:00,
2013-08-02 18:22:00,86.0,66.3,29.95,East,100,0.0,0.0,52,0.00,,---,0.00,VWS V14.01,2013-08-02 22:22:00,
2013-08-02 18:25:00,87.1,63.2,29.95,East,98,0.0,4.0,45,0.00,,---,0.00,VWS V14.01,2013-08-02 22:25:00,
2013-08-02 18:27:00,87.2,66.9,29.95,East,91,0.0,1.0,51,0.00,,---,0.00,VWS V14.01,2013-08-02 22:27:00,
2013-08-02 18:30:00,86.0,62.8,29.95,NE,53,0.0,4.0,46,0.00,,---,0.00,VWS V14.01,2013-08-02 22:30:00,
2013-08-02 18:32:00,88.1,67.1,29.95,East,91,1.0,1.0,50,0.00,,---,0.00,VWS V14.01,2013-08-02 22:32:00,
2013-08-02 18:35:00,85.6,63.7,29.95,East,94,1.0,2.0,48,0.00,,---,0.00,VWS V14.01,2013-08-02 22:35:00,
2013-08-02 18:37:00,88.4,66.2,29.95,East,91,0.0,1.0,48,0.00,,---,0.00,VWS V14.01,2013-08-02 22:37:00,
2013-08-02 18:40:00,85.7,64.9,29.95,ENE,63,0.0,1.0,50,0.00,,---,0.00,VWS V14.01,2013-08-02 22:40:00,
2013-08-02 18:42:00,88.3,67.3,29.95,ESE,105,0.0,1.0,50,0.00,,---,0.00,VWS V14.01,2013-08-02 22:42:00,
2013-08-02 18:45:00,86.0,62.8,29.95,ENE,65,0.0,1.0,46,0.00,,---,0.00,VWS V14.01,2013-08-02 22:45:00,
2013-08-02 18:47:00,87.3,66.4,29.95,ESE,104,0.0,0.0,50,0.00,,---,0.00,VWS V14.01,2013-08-02 22:47:00,
2013-08-02 18:50:00,86.2,62.4,29.95,ENE,71,0.0,3.0,45,0.00,,---,0.00,VWS V14.01,2013-08-02 22:50:00,
2013-08-02 18:53:00,86.9,68.3,29.94,ESE,104,0.0,0.0,54,0.00,,---,0.00,VWS V14.01,2013-08-02 22:53:00,
2013-08-02 18:55:00,86.1,63.5,29.95,ENE,70,0.0,2.0,47,0.00,,---,0.00,VWS V14.01,2013-08-02 22:55:00,
2013-08-02 18:58:00,86.8,68.7,29.95,ESE,104,0.0,0.0,55,0.00,,---,0.00,VWS V14.01,2013-08-02 22:58:00,
2013-08-02 19:00:00,86.4,64.4,29.95,ENE,65,0.0,2.0,48,0.00,,---,0.00,VWS V14.01,2013-08-02 23:00:00,
2013-08-02 19:03:00,87.3,68.1,29.95,ESE,104,0.0,1.0,53,0.00,,---,0.00,VWS V14.01,2013-08-02 23:03:00,
2013-08-02 19:05:00,86.3,63.1,29.95,ESE,110,0.0,3.0,46,0.00,,---,0.00,VWS V14.01,2013-08-02 23:05:00,
2013-08-02 19:08:00,87.4,67.6,29.95,ESE,104,0.0,1.0,52,0.00,,---,0.00,VWS V14.01,2013-08-02 23:08:00,
2013-08-02 19:10:00,86.1,63.5,29.94,SE,128,1.0,2.0,47,0.00,,---,0.00,VWS V14.01,2013-08-02 23:10:00,
2013-08-02 19:13:00,86.4,66.2,29.95,ESE,104,0.0,0.0,51,0.00,,---,0.00,VWS V14.01,2013-08-02 23:13:00,
2013-08-02 19:15:00,85.8,65.6,29.94,East,99,0.0,1.0,51,0.00,,---,0.00,VWS V14.01,2013-08-02 23:15:00,
2013-08-02 19:18:00,85.7,68.2,29.94,ESE,104,0.0,0.0,56,0.00,,---,0.00,VWS V14.01,2013-08-02 23:18:00,
2013-08-02 19:20:00,85.5,67.0,29.95,East,100,0.0,1.0,54,0.00,,---,0.00,VWS V14.01,2013-08-02 23:20:00,
2013-08-02 19:23:00,85.1,69.2,29.95,ESE,104,0.0,1.0,59,0.00,,---,0.00,VWS V14.01,2013-08-02 23:23:00,
2013-08-02 19:25:00,86.5,67.9,29.95,East,100,0.0,1.0,54,0.00,,---,0.00,VWS V14.01,2013-08-02 23:25:00,
2013-08-02 19:28:00,84.5,69.6,29.95,ESE,104,0.0,1.0,61,0.00,,---,0.00,VWS V14.01,2013-08-02 23:28:00,
2013-08-02 19:30:00,87.5,67.2,29.94,East,91,0.0,1.0,51,0.00,,---,0.00,VWS V14.01,2013-08-02 23:30:00,
2013-08-02 19:33:00,84.9,69.5,29.95,ESE,104,0.0,0.0,60,0.00,,---,0.00,VWS V14.01,2013-08-02 23:33:00,
2013-08-02 19:35:00,88.4,66.2,29.95,East,91,0.0,1.0,48,0.00,,---,0.00,VWS V14.01,2013-08-02 23:35:00,
2013-08-02 19:38:00,84.7,69.3,29.95,ESE,104,0.0,0.0,60,0.00,,---,0.00,VWS V14.01,2013-08-02 23:38:00,
2013-08-02 19:40:00,88.3,66.1,29.95,East,91,0.0,1.0,48,0.00,,---,0.00,VWS V14.01,2013-08-02 23:40:00,
2013-08-02 19:43:00,84.4,69.5,29.95,ESE,104,0.0,0.0,61,0.00,,---,0.00,VWS V14.01,2013-08-02 23:43:00,
2013-08-02 19:45:00,88.0,66.5,29.95,ESE,104,0.0,1.0,49,0.00,,---,0.00,VWS V14.01,2013-08-02 23:45:00,
2013-08-02 19:48:00,84.5,70.5,29.95,ESE,104,0.0,0.0,63,0.00,,---,0.00,VWS V14.01,2013-08-02 23:48:00,
2013-08-02 19:50:00,87.0,67.8,29.95,ESE,104,0.0,0.0,53,0.00,,---,0.00,VWS V14.01,2013-08-02 23:50:00,
2013-08-02 19:53:00,83.9,70.9,29.95,ESE,104,0.0,0.0,65,0.00,,---,0.00,VWS V14.01,2013-08-02 23:53:00,
2013-08-02 19:55:00,87.0,68.9,29.95,ESE,104,0.0,0.0,55,0.00,,---,0.00,VWS V14.01,2013-08-02 23:55:00,
2013-08-02 19:58:00,83.0,71.4,29.95,ESE,104,0.0,0.0,68,0.00,,---,0.00,VWS V14.01,2013-08-02 23:58:00,
2013-08-02 20:00:00,86.7,68.6,29.95,ESE,104,0.0,1.0,55,0.00,,---,0.00,VWS V14.01,2013-08-03 00:00:00,
2013-08-02 20:03:00,82.4,71.6,29.95,ESE,104,0.0,0.0,70,0.00,,---,0.00,VWS V14.01,2013-08-03 00:03:00,
2013-08-02 20:05:00,87.7,66.8,29.95,ESE,104,0.0,1.0,50,0.00,,---,0.00,VWS V14.01,2013-08-03 00:05:00,
2013-08-02 20:08:00,81.7,71.4,29.95,ESE,104,0.0,0.0,71,0.00,,---,0.00,VWS V14.01,2013-08-03 00:08:00,
2013-08-02 20:10:00,87.1,66.2,29.95,ESE,104,0.0,1.0,50,0.00,,---,0.00,VWS V14.01,2013-08-03 00:10:00,
2013-08-02 20:13:00,80.7,71.7,29.95,ESE,104,0.0,0.0,74,0.00,,---,0.00,VWS V14.01,2013-08-03 00:13:00,
2013-08-02 20:15:00,86.0,67.4,29.95,ESE,104,0.0,0.0,54,0.00,,---,0.00,VWS V14.01,2013-08-03 00:15:00,
2013-08-02 20:18:00,80.1,71.5,29.95,ESE,104,0.0,0.0,75,0.00,,---,0.00,VWS V14.01,2013-08-03 00:18:00,
2013-08-02 20:20:00,85.4,69.0,29.94,ESE,104,0.0,0.0,58,0.00,,---,0.00,VWS V14.01,2013-08-03 00:20:00,
2013-08-02 20:23:00,79.9,71.3,29.95,ESE,104,0.0,0.0,75,0.00,,---,0.00,VWS V14.01,2013-08-03 00:23:00,
2013-08-02 20:25:00,84.8,69.9,29.95,ESE,104,0.0,1.0,61,0.00,,---,0.00,VWS V14.01,2013-08-03 00:25:00,
2013-08-02 20:28:00,79.4,71.9,29.95,ESE,104,0.0,0.0,78,0.00,,---,0.00,VWS V14.01,2013-08-03 00:28:00,
2013-08-02 20:30:00,84.6,69.7,29.95,ESE,104,0.0,1.0,61,0.00,,---,0.00,VWS V14.01,2013-08-03 00:30:00,
2013-08-02 20:33:00,79.1,71.3,29.95,ESE,104,0.0,0.0,77,0.00,,---,0.00,VWS V14.01,2013-08-03 00:33:00,
2013-08-02 20:35:00,85.0,69.6,29.95,ESE,104,0.0,0.0,60,0.00,,---,0.00,VWS V14.01,2013-08-03 00:35:00,
2013-08-02 20:38:00,78.7,70.9,29.95,ESE,104,0.0,0.0,77,0.00,,---,0.00,VWS V14.01,2013-08-03 00:38:00,
2013-08-02 20:40:00,84.5,69.1,29.95,ESE,104,0.0,0.0,60,0.00,,---,0.00,VWS V14.01,2013-08-03 00:40:00,
2013-08-02 20:43:00,78.3,71.6,29.94,ESE,104,0.0,0.0,80,0.00,,---,0.00,VWS V14.01,2013-08-03 00:43:00,
2013-08-02 20:45:00,84.5,70.1,29.95,ESE,104,0.0,0.0,62,0.00,,---,0.00,VWS V14.01,2013-08-03 00:45:00,
2013-08-02 20:48:00,77.6,70.6,29.94,ESE,104,0.0,0.0,79,0.00,,---,0.00,VWS V14.01,2013-08-03 00:48:00,
2013-08-02 20:50:00,84.4,70.9,29.95,ESE,104,0.0,0.0,64,0.00,,---,0.00,VWS V14.01,2013-08-03 00:50:00,
2013-08-02 20:53:00,76.9,71.0,29.95,ESE,104,0.0,0.0,82,0.00,,---,0.00,VWS V14.01,2013-08-03 00:53:00,
2013-08-02 20:55:00,83.5,70.9,29.95,ESE,104,0.0,0.0,66,0.00,,---,0.00,VWS V14.01,2013-08-03 00:55:00,
2013-08-02 20:58:00,76.0,70.8,29.95,ESE,104,0.0,0.0,84,0.00,,---,0.00,VWS V14.01,2013-08-03 00:58:00,
2013-08-02 21:00:00,82.7,71.1,29.95,ESE,104,0.0,0.0,68,0.00,,---,0.00,VWS V14.01,2013-08-03 01:00:00,
2013-08-02 21:03:00,75.2,70.4,29.95,ESE,104,0.0,0.0,85,0.00,,---,0.00,VWS V14.01,2013-08-03 01:03:00,
2013-08-02 21:05:00,82.3,72.0,29.95,ESE,104,0.0,0.0,71,0.00,,---,0.00,VWS V14.01,2013-08-03 01:05:00,
2013-08-02 21:08:00,74.6,70.5,29.96,ESE,104,0.0,0.0,87,0.00,,---,0.00,VWS V14.01,2013-08-03 01:08:00,
2013-08-02 21:10:00,81.4,71.9,29.95,ESE,104,0.0,0.0,73,0.00,,---,0.00,VWS V14.01,2013-08-03 01:10:00,
2013-08-02 21:13:00,74.0,70.2,29.96,ESE,104,0.0,0.0,88,0.00,,---,0.00,VWS V14.01,2013-08-03 01:13:00,
2013-08-02 21:15:00,80.4,71.4,29.95,ESE,104,0.0,0.0,74,0.00,,---,0.00,VWS V14.01,2013-08-03 01:15:00,
2013-08-02 21:18:00,73.5,70.1,29.96,ESE,104,0.0,0.0,89,0.00,,---,0.00,VWS V14.01,2013-08-03 01:18:00,
2013-08-02 21:20:00,80.0,71.8,29.95,ESE,104,0.0,0.0,76,0.00,,---,0.00,VWS V14.01,2013-08-03 01:20:00,
2013-08-02 21:23:00,73.1,69.7,29.95,ESE,104,0.0,0.0,89,0.00,,---,0.00,VWS V14.01,2013-08-03 01:23:00,
2013-08-02 21:25:00,79.8,71.6,29.95,ESE,104,0.0,0.0,76,0.00,,---,0.00,VWS V14.01,2013-08-03 01:25:00,
2013-08-02 21:28:00,72.8,69.4,29.95,ESE,104,0.0,0.0,89,0.00,,---,0.00,VWS V14.01,2013-08-03 01:28:00,
2013-08-02 21:30:00,79.3,71.8,29.95,ESE,104,0.0,0.0,78,0.00,,---,0.00,VWS V14.01,2013-08-03 01:30:00,
2013-08-02 21:33:00,72.5,69.4,29.95,ESE,104,0.0,0.0,90,0.00,,---,0.00,VWS V14.01,2013-08-03 01:33:00,
2013-08-02 21:35:00,79.0,71.6,29.95,ESE,104,0.0,0.0,78,0.00,,---,0.00,VWS V14.01,2013-08-03 01:35:00,
2013-08-02 21:38:00,72.3,69.2,29.95,ESE,104,0.0,0.0,90,0.00,,---,0.00,VWS V14.01,2013-08-03 01:38:00,
2013-08-02 21:40:00,78.6,71.2,29.94,ESE,104,0.0,0.0,78,0.00,,---,0.00,VWS V14.01,2013-08-03 01:40:00,
2013-08-02 21:43:00,71.9,69.1,29.95,ESE,104,0.0,0.0,91,0.00,,---,0.00,VWS V14.01,2013-08-03 01:43:00,
2013-08-02 21:45:00,78.1,71.1,29.94,ESE,104,0.0,0.0,79,0.00,,---,0.00,VWS V14.01,2013-08-03 01:45:00,
2013-08-02 21:48:00,71.7,69.3,29.95,ESE,104,0.0,0.0,92,0.00,,---,0.00,VWS V14.01,2013-08-03 01:48:00,
2013-08-02 21:50:00,77.4,71.1,29.94,ESE,104,0.0,0.0,81,0.00,,---,0.00,VWS V14.01,2013-08-03 01:50:00,
2013-08-02 21:53:00,71.4,68.6,29.95,ESE,104,0.0,0.0,91,0.00,,---,0.00,VWS V14.01,2013-08-03 01:53:00,
2013-08-02 21:55:00,76.6,71.1,29.95,ESE,104,0.0,0.0,83,0.00,,---,0.00,VWS V14.01,2013-08-03 01:55:00,
2013-08-02 21:58:00,71.2,68.8,29.95,ESE,104,0.0,0.0,92,0.00,,---,0.00,VWS V14.01,2013-08-03 01:58:00,
2013-08-02 22:00:00,75.7,70.9,29.95,ESE,104,0.0,0.0,85,0.00,,---,0.00,VWS V14.01,2013-08-03 02:00:00,
2013-08-02 22:03:00,71.0,69.2,29.95,ESE,104,0.0,0.0,94,0.00,,---,0.00,VWS V14.01,2013-08-03 02:03:00,
2013-08-02 22:05:00,75.0,70.2,29.95,ESE,104,0.0,0.0,85,0.00,,---,0.00,VWS V14.01,2013-08-03 02:05:00,
2013-08-02 22:08:00,70.8,69.0,29.96,ESE,104,0.0,0.0,94,0.00,,---,0.00,VWS V14.01,2013-08-03 02:08:00,
2013-08-02 22:10:00,74.4,70.3,29.96,ESE,104,0.0,0.0,87,0.00,,---,0.00,VWS V14.01,2013-08-03 02:10:00,
2013-08-02 22:13:00,70.7,69.2,29.96,ESE,104,0.0,0.0,95,0.00,,---,0.00,VWS V14.01,2013-08-03 02:13:00,
2013-08-02 22:15:00,73.8,70.0,29.96,ESE,104,0.0,0.0,88,0.00,,---,0.00,VWS V14.01,2013-08-03 02:15:00,
2013-08-02 22:18:00,70.5,69.0,29.97,ESE,104,0.0,0.0,95,0.00,,---,0.00,VWS V14.01,2013-08-03 02:18:00,
2013-08-02 22:20:00,73.4,69.6,29.96,ESE,104,0.0,0.0,88,0.00,,---,0.00,VWS V14.01,2013-08-03 02:20:00,
2013-08-02 22:23:00,70.3,68.8,29.97,ESE,104,0.0,0.0,95,0.00,,---,0.00,VWS V14.01,2013-08-03 02:23:00,
2013-08-02 22:25:00,73.1,69.7,29.96,ESE,104,0.0,0.0,89,0.00,,---,0.00,VWS V14.01,2013-08-03 02:25:00,
2013-08-02 22:28:00,70.2,68.4,29.97,ESE,104,0.0,0.0,94,0.00,,---,0.00,VWS V14.01,2013-08-03 02:28:00,
2013-08-02 22:30:00,72.7,68.9,29.95,ESE,104,0.0,0.0,88,0.00,,---,0.00,VWS V14.01,2013-08-03 02:30:00,
2013-08-02 22:33:00,70.0,68.5,29.97,ESE,104,0.0,0.0,95,0.00,,---,0.00,VWS V14.01,2013-08-03 02:33:00,
2013-08-02 22:35:00,72.5,69.1,29.95,ESE,104,0.0,0.0,89,0.00,,---,0.00,VWS V14.01,2013-08-03 02:35:00,
2013-08-02 22:38:00,69.9,68.4,29.97,ESE,104,0.0,0.0,95,0.00,,---,0.00,VWS V14.01,2013-08-03 02:38:00,
2013-08-02 22:40:00,72.2,69.4,29.95,ESE,104,0.0,0.0,91,0.00,,---,0.00,VWS V14.01,2013-08-03 02:40:00,
2013-08-02 22:43:00,69.8,68.6,29.97,ESE,104,0.0,0.0,96,0.00,,---,0.00,VWS V14.01,2013-08-03 02:43:00,
2013-08-02 22:45:00,71.8,69.0,29.95,ESE,104,0.0,0.0,91,0.00,,---,0.00,VWS V14.01,2013-08-03 02:45:00,
2013-08-02 22:48:00,69.7,68.5,29.97,ESE,104,0.0,0.0,96,0.00,,---,0.00,VWS V14.01,2013-08-03 02:48:00,
2013-08-02 22:50:00,71.6,68.8,29.95,ESE,104,0.0,0.0,91,0.00,,---,0.00,VWS V14.01,2013-08-03 02:50:00,
2013-08-02 22:53:00,69.6,68.1,29.97,ESE,104,0.0,0.0,95,0.00,,---,0.00,VWS V14.01,2013-08-03 02:53:00,
2013-08-02 22:55:00,71.4,68.6,29.95,ESE,104,0.0,0.0,91,0.00,,---,0.00,VWS V14.01,2013-08-03 02:55:00,
2013-08-02 22:58:00,69.5,68.3,29.97,ESE,104,0.0,0.0,96,0.00,,---,0.00,VWS V14.01,2013-08-03 02:58:00,
2013-08-02 23:00:00,71.2,69.1,29.95,ESE,104,0.0,0.0,93,0.00,,---,0.00,VWS V14.01,2013-08-03 03:00:00,
2013-08-02 23:03:00,69.5,68.3,29.97,ESE,104,0.0,0.0,96,0.00,,---,0.00,VWS V14.01,2013-08-03 03:03:00,
2013-08-02 23:05:00,70.9,68.8,29.95,ESE,104,0.0,0.0,93,0.00,,---,0.00,VWS V14.01,2013-08-03 03:05:00,
2013-08-02 23:08:00,69.4,68.2,29.97,ESE,104,0.0,0.0,96,0.00,,---,0.00,VWS V14.01,2013-08-03 03:08:00,
2013-08-02 23:10:00,70.7,68.9,29.96,ESE,104,0.0,0.0,94,0.00,,---,0.00,VWS V14.01,2013-08-03 03:10:00,
2013-08-02 23:13:00,69.4,68.2,29.97,ESE,104,0.0,0.0,96,0.00,,---,0.00,VWS V14.01,2013-08-03 03:13:00,
2013-08-02 23:15:00,70.6,69.1,29.96,ESE,104,0.0,0.0,95,0.00,,---,0.00,VWS V14.01,2013-08-03 03:15:00,
2013-08-02 23:18:00,69.3,68.1,29.97,ESE,104,0.0,0.0,96,0.00,,---,0.00,VWS V14.01,2013-08-03 03:18:00,
2013-08-02 23:20:00,70.5,68.7,29.97,ESE,104,0.0,0.0,94,0.00,,---,0.00,VWS V14.01,2013-08-03 03:20:00,
2013-08-02 23:24:00,69.3,68.1,29.98,ESE,104,0.0,0.0,96,0.00,,---,0.00,VWS V14.01,2013-08-03 03:24:00,
2013-08-02 23:25:00,70.3,68.5,29.97,ESE,104,0.0,0.0,94,0.00,,---,0.00,VWS V14.01,2013-08-03 03:25:00,
2013-08-02 23:29:00,69.2,68.0,29.97,ESE,104,0.0,0.0,96,0.00,,---,0.00,VWS V14.01,2013-08-03 03:29:00,
2013-08-02 23:30:00,70.1,68.3,29.97,ESE,104,0.0,0.0,94,0.00,,---,0.00,VWS V14.01,2013-08-03 03:30:00,
2013-08-02 23:34:00,69.1,67.9,29.97,ESE,104,0.0,0.0,96,0.00,,---,0.00,VWS V14.01,2013-08-03 03:34:00,
2013-08-02 23:35:00,69.1,67.9,29.97,ESE,104,0.0,0.0,96,0.00,,---,0.00,VWS V14.01,2013-08-03 03:35:00,
2013-08-02 23:40:00,69.1,68.2,29.97,ESE,104,0.0,0.0,97,0.00,,---,0.00,VWS V14.01,2013-08-03 03:40:00,
2013-08-02 23:45:00,69.1,68.2,29.97,ESE,104,0.0,0.0,97,0.00,,---,0.00,VWS V14.01,2013-08-03 03:45:00,
2013-08-02 23:50:00,69.1,68.2,29.97,ESE,104,0.0,0.0,97,0.00,,---,0.00,VWS V14.01,2013-08-03 03:50:00,
2013-08-02 23:55:00,69.0,68.1,29.98,ESE,104,0.0,0.0,97,0.00,,---,0.00,VWS V14.01,2013-08-03 03:55:00,